createdAt,value
2022-10-11T00:00:11.634Z,99269.06
2022-10-11T00:02:38.359Z,99271.50
2022-10-11T00:05:05.528Z,99264.56
2022-10-11T00:07:32.276Z,99268.09
2022-10-11T00:09:59.024Z,99264.88
2022-10-11T00:12:25.765Z,99271.16
2022-10-11T00:14:52.661Z,99268.91
2022-10-11T00:17:19.404Z,99275.66
2022-10-11T00:19:46.429Z,99266.81
2022-10-11T00:22:13.215Z,99277.09
2022-10-11T00:24:42.642Z,99276.47
2022-10-11T00:27:09.491Z,99280.31
2022-10-11T00:29:37.938Z,99287.88
2022-10-11T00:32:05.409Z,99285.97
2022-10-11T00:34:32.445Z,99286.59
2022-10-11T00:36:59.279Z,99282.09
2022-10-11T00:39:26.031Z,99283.06
2022-10-11T00:41:52.842Z,99285.78
2022-10-11T00:44:22.587Z,99288.06
2022-10-11T00:47:06.205Z,99292.53
2022-10-11T00:49:42.766Z,99291.75
2022-10-11T00:52:28.925Z,99289.16
2022-10-11T00:54:58.145Z,99290.78
2022-10-11T00:57:29.642Z,99288.03
2022-10-11T00:59:57.070Z,99285.94
2022-10-11T01:02:24.707Z,99288.34
2022-10-11T01:05:05.644Z,99290.91
2022-10-11T01:07:39.514Z,99299.78
2022-10-11T01:10:06.619Z,99294.47
2022-10-11T01:12:33.707Z,99296.72
2022-10-11T01:15:12.563Z,99304.09
2022-10-11T01:18:05.176Z,99300.38
2022-10-11T01:20:59.560Z,99298.28
2022-10-11T01:23:51.599Z,99302.16
2022-10-11T01:26:42.932Z,99305.56
2022-10-11T01:29:24.876Z,99306.84
2022-10-11T01:31:58.782Z,99313.28
2022-10-11T01:34:52.985Z,99315.38
2022-10-11T01:37:32.684Z,99306.84
2022-10-11T01:40:15.628Z,99310.69
2022-10-11T01:42:43.850Z,99309.75
2022-10-11T01:45:16.958Z,99308.28
2022-10-11T01:47:45.670Z,99306.88
2022-10-11T01:50:45.281Z,99305.09
2022-10-11T01:53:37.681Z,99310.72
2022-10-11T01:56:22.822Z,99313.44
2022-10-11T01:59:09.185Z,99304.75
2022-10-11T02:02:09.321Z,99306.38
2022-10-11T02:04:53.486Z,99307.50
2022-10-11T02:07:31.254Z,99303.31
2022-10-11T02:10:15.416Z,99313.75
2022-10-11T02:12:47.787Z,99305.06
2022-10-11T02:15:17.280Z,99305.72
2022-10-11T02:17:52.241Z,99301.38
2022-10-11T02:20:23.085Z,99306.34
2022-10-11T02:22:52.887Z,99312.00
2022-10-11T02:25:25.805Z,99308.94
2022-10-11T02:27:57.009Z,99308.94
2022-10-11T02:30:23.822Z,99310.06
2022-10-11T02:32:52.649Z,99304.44
2022-10-11T02:35:24.531Z,99307.81
2022-10-11T02:38:31.088Z,99307.63
2022-10-11T02:41:03.284Z,99304.88
2022-10-11T02:43:36.805Z,99307.81
2022-10-11T02:46:06.049Z,99307.16
2022-10-11T02:48:35.440Z,99312.47
2022-10-11T02:51:03.582Z,99305.88
2022-10-11T02:53:30.944Z,99309.09
2022-10-11T02:55:57.912Z,99302.50
2022-10-11T02:58:25.348Z,99313.59
2022-10-11T03:00:52.427Z,99315.81
2022-10-11T03:03:19.370Z,99313.09
2022-10-11T03:05:46.232Z,99315.34
2022-10-11T03:08:16.308Z,99314.53
2022-10-11T03:10:43.292Z,99318.06
2022-10-11T03:13:10.936Z,99325.63
2022-10-11T03:15:39.706Z,99320.81
2022-10-11T03:18:06.543Z,99324.66
2022-10-11T03:20:33.596Z,99327.69
2022-10-11T03:23:00.389Z,99331.25
2022-10-11T03:25:27.142Z,99323.19
2022-10-11T03:27:53.882Z,99320.28
2022-10-11T03:30:20.788Z,99333.44
2022-10-11T03:32:47.616Z,99326.22
2022-10-11T03:35:14.627Z,99330.88
2022-10-11T03:37:41.444Z,99328.47
2022-10-11T03:40:10.490Z,99328.94
2022-10-11T03:42:37.377Z,99333.09
2022-10-11T03:45:07.994Z,99335.06
2022-10-11T03:47:36.165Z,99341.31
2022-10-11T03:50:04.721Z,99349.34
2022-10-11T03:52:31.928Z,99346.59
2022-10-11T03:54:58.651Z,99351.59
2022-10-11T03:57:25.470Z,99349.97
2022-10-11T03:59:52.237Z,99348.84
2022-10-11T04:02:21.316Z,99342.28
2022-10-11T04:04:48.118Z,99343.34
2022-10-11T04:07:14.805Z,99352.34
2022-10-11T04:09:41.808Z,99355.88
2022-10-11T04:12:08.643Z,99349.28
2022-10-11T04:14:35.340Z,99359.91
2022-10-11T04:17:02.067Z,99358.44
2022-10-11T04:19:28.975Z,99364.41
2022-10-11T04:21:55.677Z,99360.34
2022-10-11T04:24:22.620Z,99364.53
2022-10-11T04:26:49.437Z,99372.25
2022-10-11T04:29:16.505Z,99366.59
2022-10-11T04:31:43.251Z,99362.88
2022-10-11T04:34:09.941Z,99367.41
2022-10-11T04:36:38.908Z,99371.13
2022-10-11T04:39:07.220Z,99382.34
2022-10-11T04:41:34.460Z,99373.03
2022-10-11T04:44:02.319Z,99376.44
2022-10-11T04:46:29.254Z,99380.59
2022-10-11T04:48:56.368Z,99384.44
2022-10-11T04:51:23.370Z,99384.31
2022-10-11T04:53:50.171Z,99392.63
2022-10-11T04:56:18.426Z,99395.22
2022-10-11T04:58:48.005Z,99396.00
2022-10-11T05:01:21.061Z,99395.22
2022-10-11T05:03:48.175Z,99394.09
2022-10-11T05:06:16.984Z,99404.19
2022-10-11T05:08:43.701Z,99416.56
2022-10-11T05:11:16.089Z,99413.13
2022-10-11T05:13:44.288Z,99405.56
2022-10-11T05:16:15.070Z,99406.16
2022-10-11T05:18:45.503Z,99409.38
2022-10-11T05:21:18.176Z,99413.13
2022-10-11T05:23:45.963Z,99413.34
2022-10-11T05:26:13.707Z,99411.31
2022-10-11T05:28:40.447Z,99411.94
2022-10-11T05:31:07.274Z,99416.41
2022-10-11T05:33:34.295Z,99420.56
2022-10-11T05:36:01.159Z,99432.91
2022-10-11T05:38:35.770Z,99429.38
2022-10-11T05:41:16.759Z,99429.06
2022-10-11T05:43:44.837Z,99429.69
2022-10-11T05:46:14.878Z,99431.78
2022-10-11T05:48:41.739Z,99435.13
2022-10-11T05:51:20.727Z,99441.91
2022-10-11T05:53:47.601Z,99437.78
2022-10-11T05:56:26.247Z,99441.00
2022-10-11T05:58:56.558Z,99452.41
2022-10-11T06:01:29.847Z,99447.25
2022-10-11T06:03:56.631Z,99449.19
2022-10-11T06:06:29.292Z,99457.66
2022-10-11T06:08:56.698Z,99465.06
2022-10-11T06:11:27.972Z,99461.59
2022-10-11T06:13:56.230Z,99460.47
2022-10-11T06:16:23.055Z,99464.94
2022-10-11T06:18:56.149Z,99463.22
2022-10-11T06:21:24.052Z,99469.47
2022-10-11T06:23:54.564Z,99470.47
2022-10-11T06:26:45.107Z,99469.19
2022-10-11T06:29:11.813Z,99468.38
2022-10-11T06:31:38.564Z,99481.81
2022-10-11T06:34:05.426Z,99476.56
2022-10-11T06:36:32.231Z,99484.34
2022-10-11T06:39:01.505Z,99477.88
2022-10-11T06:41:30.131Z,99488.81
2022-10-11T06:43:57.042Z,99490.50
2022-10-11T06:46:26.582Z,99490.50
2022-10-11T06:48:54.173Z,99497.38
2022-10-11T06:51:22.214Z,99497.72
2022-10-11T06:53:55.733Z,99510.88
2022-10-11T06:56:22.911Z,99506.53
2022-10-11T06:58:51.095Z,99509.25
2022-10-11T07:01:21.155Z,99507.31
2022-10-11T07:03:48.272Z,99504.91
2022-10-11T07:06:17.826Z,99511.66
2022-10-11T07:08:44.982Z,99518.22
2022-10-11T07:11:14.365Z,99522.91
2022-10-11T07:13:41.889Z,99520.16
2022-10-11T07:16:11.361Z,99528.84
2022-10-11T07:18:38.612Z,99522.91
2022-10-11T07:21:09.566Z,99532.38
2022-10-11T07:23:36.405Z,99527.91
2022-10-11T07:26:04.832Z,99528.53
2022-10-11T07:28:31.970Z,99528.53
2022-10-11T07:30:59.241Z,99529.34
2022-10-11T07:33:26.141Z,99532.88
2022-10-11T07:35:56.969Z,99532.09
2022-10-11T07:38:23.750Z,99529.03
2022-10-11T07:40:50.462Z,99540.78
2022-10-11T07:43:17.229Z,99536.34
2022-10-11T07:45:51.226Z,99539.56
2022-10-11T07:48:17.946Z,99535.91
2022-10-11T07:50:44.750Z,99538.13
2022-10-11T07:53:11.672Z,99540.69
2022-10-11T07:55:40.157Z,99550.50
2022-10-11T07:58:10.871Z,99547.28
2022-10-11T08:00:38.651Z,99555.53
2022-10-11T08:03:06.644Z,99548.97
2022-10-11T08:05:34.095Z,99561.50
2022-10-11T08:08:00.902Z,99548.88
2022-10-11T08:10:28.468Z,99554.03
2022-10-11T08:12:55.283Z,99559.56
2022-10-11T08:15:22.358Z,99559.13
2022-10-11T08:17:49.175Z,99566.81
2022-10-11T08:20:16.223Z,99560.72
2022-10-11T08:22:43.031Z,99560.06
2022-10-11T08:25:09.778Z,99565.44
2022-10-11T08:27:36.626Z,99559.97
2022-10-11T08:30:04.906Z,99563.53
2022-10-11T08:32:31.693Z,99563.72
2022-10-11T08:34:58.495Z,99568.16
2022-10-11T08:37:25.333Z,99565.44
2022-10-11T08:39:52.055Z,99566.75
2022-10-11T08:42:36.332Z,99563.53
2022-10-11T08:45:11.811Z,99570.41
2022-10-11T08:47:46.910Z,99562.72
2022-10-11T08:50:19.800Z,99559.97
2022-10-11T08:52:55.630Z,99566.25
2022-10-11T08:55:34.885Z,99565.16
2022-10-11T08:58:02.068Z,99566.75
2022-10-11T09:00:31.952Z,99563.91
2022-10-11T09:06:52.872Z,99567.56
2022-10-11T09:09:33.423Z,99571.09
2022-10-11T09:12:18.929Z,99564.19
2022-10-11T09:15:00.987Z,99567.94
2022-10-11T09:17:30.712Z,99563.78
2022-10-11T09:20:22.862Z,99558.13
2022-10-11T09:22:49.475Z,99560.72
2022-10-11T09:25:29.153Z,99569.75
2022-10-11T09:28:08.054Z,99565.28
2022-10-11T09:30:40.345Z,99566.91
2022-10-11T09:33:17.387Z,99571.47
2022-10-11T09:35:49.489Z,99568.56
2022-10-11T09:38:41.723Z,99577.75
2022-10-11T09:41:34.919Z,99560.06
2022-10-11T09:44:01.890Z,99572.16
2022-10-11T09:46:34.597Z,99567.91
2022-10-11T09:49:04.094Z,99563.34
2022-10-11T09:51:34.367Z,99569.31
2022-10-11T09:54:04.902Z,99566.06
2022-10-11T09:56:39.974Z,99571.53
2022-10-11T09:59:25.502Z,99569.13
2022-10-11T10:02:14.314Z,99570.75
2022-10-11T10:05:01.378Z,99573.16
2022-10-11T10:07:30.300Z,99574.47
2022-10-11T10:09:57.920Z,99571.75
2022-10-11T10:12:29.077Z,99574.84
2022-10-11T10:15:03.308Z,99576.97
2022-10-11T10:17:30.507Z,99574.84
2022-10-11T10:20:00.364Z,99578.69
2022-10-11T10:22:34.081Z,99577.44
2022-10-11T10:25:05.896Z,99577.13
2022-10-11T10:27:32.607Z,99576.97
2022-10-11T10:30:02.222Z,99581.56
2022-10-11T10:32:37.565Z,99574.75
2022-10-11T10:35:18.535Z,99581.56
2022-10-11T10:38:05.232Z,99575.97
2022-10-11T10:40:40.391Z,99581.72
2022-10-11T10:43:16.199Z,99581.44
2022-10-11T10:46:10.006Z,99577.25
2022-10-11T10:49:34.882Z,99580.81
2022-10-11T10:52:51.113Z,99577.19
2022-10-11T10:55:49.925Z,99570.75
2022-10-11T10:58:37.746Z,99571.88
2022-10-11T11:01:29.057Z,99571.88
2022-10-11T11:04:19.112Z,99571.50
2022-10-11T11:07:03.743Z,99574.72
2022-10-11T11:09:42.181Z,99582.28
2022-10-11T11:12:24.058Z,99576.34
2022-10-11T11:15:03.735Z,99569.88
2022-10-11T11:17:45.730Z,99566.31
2022-10-11T11:20:39.277Z,99568.25
2022-10-11T11:23:17.963Z,99568.75
2022-10-11T11:26:12.122Z,99567.06
2022-10-11T11:28:50.067Z,99560.19
2022-10-11T11:31:44.899Z,99566.41
2022-10-11T11:34:17.857Z,99555.25
2022-10-11T11:37:02.412Z,99553.47
2022-10-11T11:39:46.677Z,99551.38
2022-10-11T11:42:16.673Z,99557.50
2022-10-11T11:44:46.701Z,99561.56
2022-10-11T11:47:25.163Z,99566.06
2022-10-11T11:49:59.861Z,99563.16
2022-10-11T11:52:36.052Z,99568.00
2022-10-11T11:55:45.440Z,99555.75
2022-10-11T11:58:30.966Z,99555.47
2022-10-11T12:01:26.466Z,99553.03
2022-10-11T12:04:01.556Z,99550.44
2022-10-11T12:06:32.118Z,99562.19
2022-10-11T12:09:09.209Z,99556.59
2022-10-11T12:12:06.894Z,99553.41
2022-10-11T12:14:36.819Z,99544.69
2022-10-11T12:17:16.228Z,99544.69
2022-10-11T12:20:01.129Z,99541.88
2022-10-11T12:22:30.659Z,99537.56
2022-10-11T12:25:19.161Z,99534.69
2022-10-11T12:27:47.392Z,99537.97
2022-10-11T12:31:02.539Z,99540.25
2022-10-11T12:33:32.733Z,99528.69
2022-10-11T12:36:22.237Z,99532.22
2022-10-11T12:39:20.922Z,99529.34
2022-10-11T12:41:47.819Z,99526.91
2022-10-11T12:44:23.012Z,99529.31
2022-10-11T12:46:57.488Z,99526.41
2022-10-11T12:49:31.340Z,99522.69
2022-10-11T12:52:27.006Z,99515.41
2022-10-11T12:55:02.967Z,99515.13
2022-10-11T12:57:46.448Z,99509.81
2022-10-11T13:00:29.883Z,99510.94
2022-10-11T13:02:58.531Z,99508.56
2022-10-11T13:05:30.607Z,99513.53
2022-10-11T13:08:02.500Z,99506.28
2022-10-11T13:10:35.450Z,99514.63
2022-10-11T13:13:04.489Z,99518.28
2022-10-11T13:15:31.733Z,99510.84
2022-10-11T13:18:13.373Z,99513.09
2022-10-11T13:20:42.477Z,99511.03
2022-10-11T13:23:28.648Z,99507.34
2022-10-11T13:25:57.087Z,99509.78
2022-10-11T13:28:24.613Z,99504.00
2022-10-11T13:30:59.024Z,99508.53
2022-10-11T13:33:32.903Z,99505.16
2022-10-11T13:36:06.093Z,99503.56
2022-10-11T13:38:36.073Z,99504.41
2022-10-11T13:41:05.279Z,99501.69
2022-10-11T13:43:32.536Z,99503.47
2022-10-11T13:46:02.858Z,99500.41
2022-10-11T13:48:32.073Z,99502.03
2022-10-11T13:51:38.461Z,99500.13
2022-10-11T13:54:24.846Z,99503.03
2022-10-11T13:56:55.006Z,99495.13
2022-10-11T13:59:27.985Z,99497.25
2022-10-11T14:02:01.570Z,99496.66
2022-10-11T14:04:40.430Z,99498.69
2022-10-11T14:07:31.624Z,99499.31
2022-10-11T14:10:07.331Z,99492.41
2022-10-11T14:12:44.325Z,99494.22
2022-10-11T14:15:36.438Z,99497.78
2022-10-11T14:18:31.700Z,99482.78
2022-10-11T14:20:58.572Z,99475.69
2022-10-11T14:23:25.489Z,99480.06
2022-10-11T14:25:53.148Z,99480.53
2022-10-11T14:28:22.697Z,99488.28
2022-10-11T14:31:01.424Z,99485.72
2022-10-11T14:33:31.299Z,99488.59
2022-10-11T14:35:58.072Z,99488.31
2022-10-11T14:38:33.354Z,99485.56
2022-10-11T14:41:03.815Z,99489.09
2022-10-11T14:43:32.880Z,99486.19
2022-10-11T14:45:59.863Z,99479.59
2022-10-11T14:48:50.310Z,99488.94
2022-10-11T14:51:14.950Z,99488.75
2022-10-11T14:53:46.247Z,99483.41
2022-10-11T14:56:18.941Z,99479.34
2022-10-11T14:58:53.496Z,99478.22
2022-10-11T15:01:24.997Z,99486.78
2022-10-11T15:03:55.208Z,99482.25
2022-10-11T15:06:29.884Z,99480.00
2022-10-11T15:08:56.805Z,99482.72
2022-10-11T15:11:24.242Z,99479.34
2022-10-11T15:13:51.225Z,99479.34
2022-10-11T15:16:20.309Z,99480.84
2022-10-11T15:18:51.941Z,99477.59
2022-10-11T15:21:25.154Z,99484.34
2022-10-11T15:23:52.867Z,99478.88
2022-10-11T15:26:30.409Z,99475.19
2022-10-11T15:28:57.630Z,99479.72
2022-10-11T15:31:24.536Z,99469.78
2022-10-11T15:33:53.883Z,99466.88
2022-10-11T15:36:22.268Z,99467.34
2022-10-11T15:38:49.585Z,99477.50
2022-10-11T15:41:21.456Z,99469.31
2022-10-11T15:43:48.807Z,99463.34
2022-10-11T15:46:20.764Z,99464.16
2022-10-11T15:48:49.072Z,99462.06
2022-10-11T15:51:16.562Z,99466.41
2022-10-11T15:53:43.596Z,99466.22
2022-10-11T15:56:15.481Z,99461.09
2022-10-11T15:58:42.821Z,99467.06
2022-10-11T16:01:13.997Z,99464.94
2022-10-11T16:03:41.529Z,99471.97
2022-10-11T16:06:09.069Z,99474.03
2022-10-11T16:08:36.760Z,99472.56
2022-10-11T16:11:05.289Z,99467.59
2022-10-11T16:13:32.043Z,99469.03
2022-10-11T16:16:02.783Z,99465.63
2022-10-11T16:18:34.916Z,99476.56
2022-10-11T16:21:06.844Z,99469.97
2022-10-11T16:23:34.669Z,99467.03
2022-10-11T16:26:05.179Z,99468.66
2022-10-11T16:28:33.007Z,99467.69
2022-10-11T16:31:00.216Z,99462.53
2022-10-11T16:33:27.682Z,99458.84
2022-10-11T16:36:14.569Z,99457.72
2022-10-11T16:38:41.409Z,99459.91
2022-10-11T16:41:08.176Z,99457.31
2022-10-11T16:43:35.923Z,99461.78
2022-10-11T16:46:02.866Z,99456.13
2022-10-11T16:48:29.980Z,99464.31
2022-10-11T16:51:05.389Z,99460.09
2022-10-11T16:53:34.298Z,99460.22
2022-10-11T16:56:07.260Z,99456.00
2022-10-11T16:58:35.693Z,99464.63
2022-10-11T17:01:07.872Z,99459.31
2022-10-11T17:03:34.742Z,99465.72
2022-10-11T17:06:01.613Z,99457.94
2022-10-11T17:08:29.086Z,99466.72
2022-10-11T17:10:57.708Z,99468.66
2022-10-11T17:13:24.829Z,99467.06
2022-10-11T17:15:51.738Z,99465.56
2022-10-11T17:18:18.974Z,99466.91
2022-10-11T17:20:45.961Z,99469.38
2022-10-11T17:23:12.928Z,99475.94
2022-10-11T17:25:44.572Z,99473.84
2022-10-11T17:28:11.613Z,99479.63
2022-10-11T17:30:41.842Z,99482.94
2022-10-11T17:33:11.507Z,99485.19
2022-10-11T17:35:38.196Z,99480.53
2022-10-11T17:38:06.362Z,99480.34
2022-10-11T17:40:33.509Z,99480.63
2022-10-11T17:43:00.286Z,99484.19
2022-10-11T17:45:27.145Z,99487.19
2022-10-11T17:47:56.340Z,99492.03
2022-10-11T17:50:23.133Z,99489.19
2022-10-11T17:52:50.021Z,99488.69
2022-10-11T17:55:16.866Z,99489.03
2022-10-11T17:57:43.653Z,99493.56
2022-10-11T18:00:10.900Z,99483.88
2022-10-11T18:02:40.106Z,99486.41
2022-10-11T18:05:08.350Z,99491.03
2022-10-11T18:07:35.610Z,99500.47
2022-10-11T18:10:02.385Z,99493.38
2022-10-11T18:12:30.107Z,99490.16
2022-10-11T18:14:56.774Z,99493.09
2022-10-11T18:17:23.574Z,99482.38
2022-10-11T18:19:50.402Z,99491.16
2022-10-11T18:22:17.177Z,99490.03
2022-10-11T18:24:44.160Z,99482.97
2022-10-11T18:27:11.254Z,99486.81
2022-10-11T18:29:38.072Z,99478.34
2022-10-11T18:32:04.925Z,99478.34
2022-10-11T18:34:31.740Z,99479.13
2022-10-11T18:36:58.423Z,99470.66
2022-10-11T18:39:25.285Z,99473.19
2022-10-11T18:41:52.252Z,99481.97
2022-10-11T18:44:19.285Z,99473.72
2022-10-11T18:46:46.317Z,99478.16
2022-10-11T18:49:13.621Z,99471.38
2022-10-11T18:51:42.131Z,99468.66
2022-10-11T18:54:12.890Z,99472.09
2022-10-11T18:56:43.096Z,99466.72
2022-10-11T18:59:10.121Z,99472.69
2022-10-11T19:01:39.508Z,99474.91
2022-10-11T19:04:09.429Z,99470.06
2022-10-11T19:06:38.774Z,99476.63
2022-10-11T19:09:22.996Z,99475.94
2022-10-11T19:11:53.174Z,99468.16
2022-10-11T19:14:22.823Z,99470.88
2022-10-11T19:16:51.421Z,99470.38
2022-10-11T19:19:24.510Z,99476.13
2022-10-11T19:21:51.816Z,99486.66
2022-10-11T19:24:21.299Z,99484.75
2022-10-11T19:26:50.360Z,99475.75
2022-10-11T19:29:19.975Z,99489.38
2022-10-11T19:31:55.633Z,99483.13
2022-10-11T19:34:23.798Z,99485.84
2022-10-11T19:36:52.666Z,99481.19
2022-10-11T19:39:21.366Z,99472.50
2022-10-11T19:41:48.350Z,99474.22
2022-10-11T19:44:16.047Z,99475.16
2022-10-11T19:46:51.653Z,99479.59
2022-10-11T19:49:24.018Z,99475.16
2022-10-11T19:51:52.384Z,99477.97
2022-10-11T19:54:19.754Z,99480.72
2022-10-11T19:56:46.794Z,99488.88
2022-10-11T19:59:14.579Z,99473.53
2022-10-11T20:01:44.589Z,99476.78
2022-10-11T20:04:33.181Z,99477.16
2022-10-11T20:07:00.432Z,99477.66
2022-10-11T20:09:30.034Z,99482.91
2022-10-11T20:11:58.014Z,99498.06
2022-10-11T20:14:24.928Z,99493.72
2022-10-11T20:16:52.421Z,99495.84
2022-10-11T20:19:19.349Z,99487.56
2022-10-11T20:21:46.149Z,99497.16
2022-10-11T20:24:13.014Z,99496.97
2022-10-11T20:26:39.838Z,99492.22
2022-10-11T20:29:07.095Z,99492.50
2022-10-11T20:31:38.439Z,99488.16
2022-10-11T20:34:07.573Z,99496.06
2022-10-11T20:36:36.393Z,99492.50
2022-10-11T20:39:05.349Z,99493.13
2022-10-11T20:41:59.886Z,99494.63
2022-10-11T20:44:26.529Z,99495.53
2022-10-11T20:46:53.297Z,99486.06
2022-10-11T20:49:20.516Z,99491.69
2022-10-11T20:51:47.177Z,99491.91
2022-10-11T20:54:13.979Z,99499.16
2022-10-11T20:56:40.924Z,99494.31
2022-10-11T20:59:08.390Z,99499.16
2022-10-11T21:01:38.774Z,99493.69
2022-10-11T21:04:07.339Z,99493.97
2022-10-11T21:06:34.307Z,99488.03
2022-10-11T21:09:02.265Z,99490.47
2022-10-11T21:11:31.103Z,99492.69
2022-10-11T21:13:59.665Z,99489.63
2022-10-11T21:16:27.806Z,99487.41
2022-10-11T21:18:56.810Z,99488.25
2022-10-11T21:21:24.142Z,99481.19
2022-10-11T21:23:58.625Z,99489.91
2022-10-11T21:26:27.272Z,99484.34
2022-10-11T21:28:54.343Z,99481.41
2022-10-11T21:31:22.982Z,99477.56
2022-10-11T21:33:50.209Z,99475.16
2022-10-11T21:36:19.397Z,99473.53
2022-10-11T21:38:46.839Z,99475.22
2022-10-11T21:41:16.401Z,99475.31
2022-10-11T21:43:43.289Z,99470.97
2022-10-11T21:46:19.788Z,99470.53
2022-10-11T21:48:47.691Z,99471.03
2022-10-11T21:51:17.094Z,99475.47
2022-10-11T21:53:43.827Z,99473.03
2022-10-11T21:56:10.557Z,99475.66
2022-10-11T21:58:37.436Z,99469.19
2022-10-11T22:01:04.259Z,99469.19
2022-10-11T22:03:31.102Z,99468.69
2022-10-11T22:05:57.914Z,99476.25
2022-10-11T22:08:24.601Z,99461.25
2022-10-11T22:10:57.565Z,99467.50
2022-10-11T22:13:25.907Z,99467.59
2022-10-11T22:15:52.692Z,99462.88
2022-10-11T22:18:19.586Z,99460.94
2022-10-11T22:20:46.362Z,99463.38
2022-10-11T22:23:13.077Z,99461.94
2022-10-11T22:25:40.847Z,99467.81
2022-10-11T22:28:08.492Z,99460.69
2022-10-11T22:30:35.546Z,99456.34
2022-10-11T22:33:02.321Z,99455.84
2022-10-11T22:35:31.400Z,99444.94
2022-10-11T22:38:00.422Z,99444.63
2022-10-11T22:40:27.847Z,99444.63
2022-10-11T22:42:54.619Z,99434.53
2022-10-11T22:45:21.421Z,99437.78
2022-10-11T22:47:48.845Z,99436.75
2022-10-11T22:50:15.932Z,99439.50
2022-10-11T22:52:42.906Z,99432.72
2022-10-11T22:55:09.717Z,99439.50
2022-10-11T22:57:36.804Z,99436.75
2022-10-11T23:00:04.433Z,99440.50
2022-10-11T23:02:31.220Z,99436.56
2022-10-11T23:04:58.400Z,99435.25
2022-10-11T23:07:25.398Z,99440.41
2022-10-11T23:09:52.229Z,99436.84
2022-10-11T23:12:18.884Z,99434.97
2022-10-11T23:14:45.741Z,99431.41
2022-10-11T23:17:12.466Z,99436.56
2022-10-11T23:19:39.165Z,99433.03
2022-10-11T23:22:05.874Z,99435.47
2022-10-11T23:24:32.582Z,99425.66
2022-10-11T23:26:59.473Z,99428.41
2022-10-11T23:29:26.271Z,99426.06
2022-10-11T23:31:53.016Z,99424.75
2022-10-11T23:34:19.814Z,99423.44
2022-10-11T23:36:46.502Z,99433.22
2022-10-11T23:39:13.378Z,99432.50
2022-10-11T23:41:40.022Z,99428.47
2022-10-11T23:44:06.738Z,99424.63
2022-10-11T23:46:33.663Z,99427.38
2022-10-11T23:49:00.393Z,99424.84
2022-10-11T23:51:27.149Z,99426.31
2022-10-11T23:53:54.207Z,99432.88
2022-10-11T23:56:21.274Z,99432.09
2022-10-11T23:58:48.117Z,99433.28
